createdAt,value
2022-07-31T00:02:08.109Z,254.98
2022-07-31T00:04:34.945Z,254.15
2022-07-31T00:07:02.053Z,245.75
2022-07-31T00:09:53.504Z,249.00
2022-07-31T00:12:17.603Z,245.05
2022-07-31T00:14:45.069Z,251.00
2022-07-31T00:17:11.810Z,251.82
2022-07-31T00:19:38.532Z,244.05
2022-07-31T00:22:05.186Z,249.30
2022-07-31T00:24:31.766Z,248.17
2022-07-31T00:26:58.528Z,246.75
2022-07-31T00:29:25.903Z,248.45
2022-07-31T00:31:53.214Z,246.98
2022-07-31T00:34:19.987Z,247.45
2022-07-31T00:36:46.730Z,242.75
2022-07-31T00:39:13.529Z,237.95
2022-07-31T00:41:43.040Z,238.95
2022-07-31T00:44:12.396Z,241.05
2022-07-31T00:46:40.514Z,239.25
2022-07-31T00:49:10.022Z,239.82
2022-07-31T00:51:38.406Z,246.73
2022-07-31T00:54:06.147Z,245.45
2022-07-31T00:56:32.792Z,243.65
2022-07-31T00:58:59.977Z,234.48
2022-07-31T01:01:27.617Z,235.50
2022-07-31T01:03:54.553Z,238.60
2022-07-31T01:06:21.149Z,242.57
2022-07-31T01:08:48.539Z,236.38
2022-07-31T01:11:28.067Z,239.43
2022-07-31T01:13:58.546Z,236.35
2022-07-31T01:16:30.611Z,238.50
2022-07-31T01:18:58.954Z,240.55
2022-07-31T01:21:34.296Z,245.83
2022-07-31T01:24:24.639Z,243.05
2022-07-31T01:27:20.694Z,243.95
2022-07-31T01:29:53.553Z,244.10
2022-07-31T01:32:33.402Z,240.80
2022-07-31T01:35:24.866Z,244.07
2022-07-31T01:37:58.716Z,254.60
2022-07-31T01:40:35.706Z,257.05
2022-07-31T01:43:07.912Z,252.23
2022-07-31T01:45:36.689Z,255.80
2022-07-31T01:48:05.157Z,257.33
2022-07-31T01:50:43.870Z,252.05
2022-07-31T01:53:15.169Z,258.15
2022-07-31T01:56:02.217Z,259.17
2022-07-31T01:58:35.266Z,257.55
2022-07-31T02:01:09.321Z,256.38
2022-07-31T02:03:43.712Z,255.10
2022-07-31T02:06:16.143Z,258.13
2022-07-31T02:08:48.935Z,258.63
2022-07-31T02:11:19.274Z,259.50
2022-07-31T02:13:47.454Z,257.07
2022-07-31T02:16:16.636Z,258.47
2022-07-31T02:18:43.484Z,261.73
2022-07-31T02:21:15.224Z,265.23
2022-07-31T02:23:41.928Z,255.88
2022-07-31T02:26:09.784Z,263.80
2022-07-31T02:28:40.698Z,261.43
2022-07-31T02:31:11.342Z,257.80
2022-07-31T02:33:40.089Z,252.95
2022-07-31T02:36:07.411Z,256.15
2022-07-31T02:38:35.345Z,251.70
2022-07-31T02:41:05.013Z,247.05
2022-07-31T02:43:34.902Z,245.10
2022-07-31T02:46:12.669Z,246.95
2022-07-31T02:48:40.395Z,239.13
2022-07-31T02:51:09.820Z,241.43
2022-07-31T02:53:37.891Z,253.23
2022-07-31T02:56:09.805Z,255.73
2022-07-31T02:58:41.813Z,251.53
2022-07-31T03:01:14.318Z,249.23
2022-07-31T03:03:43.049Z,246.32
2022-07-31T03:06:11.071Z,243.73
2022-07-31T03:08:38.231Z,244.32
2022-07-31T03:11:05.615Z,249.95
2022-07-31T03:13:34.911Z,241.48
2022-07-31T03:16:04.210Z,246.20
2022-07-31T03:18:31.754Z,252.27
2022-07-31T03:20:58.768Z,250.10
2022-07-31T03:23:27.923Z,251.03
2022-07-31T03:26:04.322Z,249.80
2022-07-31T03:28:33.213Z,252.90
2022-07-31T03:30:59.984Z,244.27
2022-07-31T03:33:29.872Z,241.23
2022-07-31T03:35:56.604Z,240.65
2022-07-31T03:38:39.222Z,238.67
2022-07-31T03:41:17.651Z,240.63
2022-07-31T03:43:48.482Z,236.85
2022-07-31T03:46:23.738Z,236.40
2022-07-31T03:48:52.651Z,239.35
2022-07-31T03:51:20.491Z,238.00
2022-07-31T03:53:48.571Z,229.13
2022-07-31T03:56:36.493Z,230.85
2022-07-31T03:59:04.157Z,233.10
2022-07-31T04:01:57.455Z,231.88
2022-07-31T04:04:27.424Z,236.85
2022-07-31T04:07:00.229Z,231.13
2022-07-31T04:09:27.190Z,234.77
2022-07-31T04:11:53.877Z,235.27
2022-07-31T04:14:21.210Z,233.73
2022-07-31T04:16:48.208Z,228.90
2022-07-31T04:19:15.146Z,232.35
2022-07-31T04:21:41.788Z,235.73
2022-07-31T04:24:08.980Z,238.02
2022-07-31T04:26:58.596Z,236.80
2022-07-31T04:29:32.087Z,243.40
2022-07-31T04:31:58.754Z,243.32
2022-07-31T04:34:32.840Z,243.03
2022-07-31T04:36:59.620Z,239.10
2022-07-31T04:39:26.318Z,240.73
2022-07-31T04:41:53.045Z,241.70
2022-07-31T04:44:20.678Z,233.13
2022-07-31T04:47:01.949Z,234.55
2022-07-31T04:49:32.565Z,235.20
2022-07-31T04:52:02.385Z,230.73
2022-07-31T04:54:29.974Z,233.68
2022-07-31T04:56:58.592Z,231.45
2022-07-31T04:59:59.433Z,232.00
2022-07-31T05:02:12.596Z,223.57
2022-07-31T05:04:39.679Z,223.02
2022-07-31T05:07:06.327Z,221.45
2022-07-31T05:09:36.338Z,217.25
2022-07-31T05:12:05.550Z,225.05
2022-07-31T05:14:32.573Z,215.35
2022-07-31T05:16:59.324Z,208.70
2022-07-31T05:19:31.291Z,211.90
2022-07-31T05:22:16.619Z,210.60
2022-07-31T05:25:02.865Z,210.07
2022-07-31T05:27:29.538Z,213.45
2022-07-31T05:29:58.800Z,206.93
2022-07-31T05:32:25.386Z,207.88
2022-07-31T05:34:52.386Z,214.20
2022-07-31T05:37:20.041Z,211.40
2022-07-31T05:39:46.750Z,210.68
2022-07-31T05:42:33.605Z,209.73
2022-07-31T05:45:23.378Z,210.85
2022-07-31T05:47:50.152Z,211.00
2022-07-31T05:50:17.830Z,203.10
2022-07-31T05:52:45.694Z,204.80
2022-07-31T05:55:27.537Z,206.57
2022-07-31T05:57:54.184Z,196.63
2022-07-31T06:00:21.060Z,202.10
2022-07-31T06:02:48.217Z,208.33
2022-07-31T06:05:35.387Z,190.40
2022-07-31T06:08:02.306Z,191.77
2022-07-31T06:10:33.954Z,191.73
2022-07-31T06:13:00.747Z,184.10
2022-07-31T06:15:27.478Z,189.85
2022-07-31T06:17:54.756Z,185.05
2022-07-31T06:20:28.863Z,185.38
2022-07-31T06:22:55.764Z,176.68
2022-07-31T06:25:24.852Z,178.75
2022-07-31T06:27:59.316Z,172.43
2022-07-31T06:30:27.968Z,161.48
2022-07-31T06:32:55.216Z,162.13
2022-07-31T06:35:21.993Z,156.90
2022-07-31T06:38:11.963Z,157.02
2022-07-31T06:40:58.505Z,143.73
2022-07-31T06:43:34.535Z,144.55
2022-07-31T06:46:19.883Z,129.27
2022-07-31T06:49:24.758Z,132.40
2022-07-31T06:51:52.148Z,130.63
2022-07-31T06:54:19.141Z,124.15
2022-07-31T06:56:46.501Z,125.80
2022-07-31T06:59:13.151Z,113.85
2022-07-31T07:01:50.328Z,124.18
2022-07-31T07:04:17.029Z,129.43
2022-07-31T07:06:43.794Z,123.57
2022-07-31T07:09:11.493Z,117.00
2022-07-31T07:11:39.401Z,109.15
2022-07-31T07:14:06.337Z,113.50
2022-07-31T07:16:33.003Z,96.40
2022-07-31T07:18:59.721Z,92.85
2022-07-31T07:21:26.458Z,88.55
2022-07-31T07:23:53.188Z,89.88
2022-07-31T07:26:49.046Z,86.35
2022-07-31T07:29:15.828Z,37.38
2022-07-31T07:31:44.642Z,4.80
2022-07-31T07:34:11.994Z,5.90
2022-07-31T07:36:38.609Z,5.18
2022-07-31T07:39:17.604Z,5.13
2022-07-31T07:41:45.419Z,5.20
2022-07-31T07:44:12.195Z,3.00
2022-07-31T07:46:38.835Z,3.42
2022-07-31T07:49:07.446Z,1.70
2022-07-31T07:51:58.755Z,2.28
2022-07-31T07:54:47.116Z,2.17
2022-07-31T07:57:32.606Z,2.15
2022-07-31T08:00:07.886Z,3.92
2022-07-31T08:02:45.001Z,2.35
2022-07-31T08:05:32.313Z,2.53
2022-07-31T08:07:59.698Z,3.08
2022-07-31T08:10:44.734Z,3.58
2022-07-31T08:13:17.992Z,3.38
2022-07-31T08:16:03.505Z,3.35
2022-07-31T08:18:33.629Z,1.70
2022-07-31T08:21:00.286Z,2.80
2022-07-31T08:23:27.749Z,3.58
2022-07-31T08:25:55.343Z,2.13
2022-07-31T08:28:25.844Z,1.67
2022-07-31T08:30:53.989Z,2.90
2022-07-31T08:33:22.122Z,2.00
2022-07-31T08:35:54.434Z,3.38
2022-07-31T08:38:21.351Z,2.45
2022-07-31T08:41:07.431Z,2.25
2022-07-31T08:44:00.332Z,1.30
2022-07-31T08:46:22.147Z,1.20
2022-07-31T08:48:53.458Z,2.10
2022-07-31T08:51:22.581Z,3.28
2022-07-31T08:54:16.114Z,0.93
2022-07-31T08:56:43.115Z,2.60
2022-07-31T08:59:09.875Z,2.00
2022-07-31T09:01:38.839Z,3.05
2022-07-31T09:04:05.717Z,2.80
2022-07-31T09:06:33.408Z,1.98
2022-07-31T09:09:00.189Z,1.88
2022-07-31T09:11:27.265Z,2.22
2022-07-31T09:14:04.927Z,1.08
2022-07-31T09:16:49.046Z,4.15
2022-07-31T09:19:53.117Z,1.30
2022-07-31T09:22:21.886Z,4.20
2022-07-31T09:24:49.749Z,2.20
2022-07-31T09:27:17.833Z,2.47
2022-07-31T09:29:46.966Z,1.20
2022-07-31T09:32:43.261Z,1.10
2022-07-31T09:35:15.640Z,1.70
2022-07-31T09:37:47.167Z,1.33
2022-07-31T09:40:55.386Z,4.00
2022-07-31T09:43:59.768Z,1.55
2022-07-31T09:46:27.596Z,1.63
2022-07-31T09:49:00.703Z,1.60
2022-07-31T09:51:41.423Z,1.67
2022-07-31T09:54:21.195Z,3.08
2022-07-31T09:57:11.121Z,2.25
2022-07-31T09:59:40.581Z,1.52
2022-07-31T10:02:09.185Z,1.95
2022-07-31T10:04:38.769Z,1.83
2022-07-31T10:07:08.505Z,1.10
2022-07-31T10:09:40.062Z,2.55
2022-07-31T10:12:22.839Z,2.03
2022-07-31T10:14:53.637Z,1.50
2022-07-31T10:17:27.256Z,1.70
2022-07-31T10:20:21.740Z,1.63
2022-07-31T10:23:15.646Z,2.30
2022-07-31T10:25:53.559Z,2.65
2022-07-31T10:28:22.056Z,1.30
2022-07-31T10:30:49.219Z,1.17
2022-07-31T10:33:41.848Z,2.25
2022-07-31T10:36:35.338Z,1.98
2022-07-31T10:39:21.600Z,1.20
2022-07-31T10:42:13.169Z,1.60
2022-07-31T10:44:48.866Z,1.90
2022-07-31T10:47:20.973Z,4.50
2022-07-31T10:50:06.966Z,2.45
2022-07-31T10:52:54.207Z,1.98
2022-07-31T10:55:32.415Z,1.45
2022-07-31T10:58:22.636Z,3.22
2022-07-31T11:01:09.271Z,3.40
2022-07-31T11:04:04.758Z,3.10
2022-07-31T11:06:51.774Z,1.50
2022-07-31T11:09:51.272Z,1.63
2022-07-31T11:13:04.953Z,2.73
2022-07-31T11:16:03.639Z,1.67
2022-07-31T11:18:57.798Z,1.90
2022-07-31T11:21:39.899Z,3.38
2022-07-31T11:24:27.087Z,1.95
2022-07-31T11:26:58.495Z,2.10
2022-07-31T11:30:00.509Z,0.70
2022-07-31T11:32:25.963Z,0.90
2022-07-31T11:34:55.371Z,3.27
2022-07-31T11:37:46.163Z,2.15
2022-07-31T11:40:18.602Z,2.10
2022-07-31T11:42:46.236Z,1.05
2022-07-31T11:45:15.184Z,2.33
2022-07-31T11:48:11.956Z,1.77
2022-07-31T11:50:44.652Z,1.60
2022-07-31T11:53:12.775Z,2.47
2022-07-31T11:55:50.442Z,2.35
2022-07-31T11:58:19.393Z,4.30
2022-07-31T12:00:53.971Z,1.15
2022-07-31T12:03:24.565Z,2.47
2022-07-31T12:05:52.477Z,1.67
2022-07-31T12:08:20.412Z,2.10
2022-07-31T12:10:47.764Z,2.30
2022-07-31T12:13:17.075Z,1.00
2022-07-31T12:16:06.566Z,1.88
2022-07-31T12:18:48.727Z,2.13
2022-07-31T12:21:16.409Z,1.40
2022-07-31T12:23:51.885Z,1.20
2022-07-31T12:26:27.893Z,0.77
2022-07-31T12:29:00.706Z,1.30
2022-07-31T12:31:29.745Z,1.10
2022-07-31T12:33:56.649Z,1.90
2022-07-31T12:36:23.430Z,2.60
2022-07-31T12:39:01.557Z,1.10
2022-07-31T12:41:29.983Z,2.50
2022-07-31T12:44:14.533Z,2.40
2022-07-31T12:46:41.969Z,1.95
2022-07-31T12:49:09.366Z,2.92
2022-07-31T12:51:44.856Z,7.90
2022-07-31T12:54:16.929Z,3.85
2022-07-31T12:56:44.888Z,2.22
2022-07-31T12:59:12.156Z,3.97
2022-07-31T13:01:38.928Z,1.55
2022-07-31T13:04:08.035Z,1.20
2022-07-31T13:06:45.086Z,1.17
2022-07-31T13:09:11.800Z,1.80
2022-07-31T13:11:46.074Z,2.42
2022-07-31T13:14:18.631Z,2.42
2022-07-31T13:16:46.403Z,3.15
2022-07-31T13:19:13.688Z,2.60
2022-07-31T13:21:48.128Z,4.20
2022-07-31T13:24:20.956Z,3.03
2022-07-31T13:26:49.285Z,4.50
2022-07-31T13:29:16.644Z,2.90
2022-07-31T13:31:43.635Z,2.60
2022-07-31T13:34:10.501Z,3.33
2022-07-31T13:36:38.774Z,2.13
2022-07-31T13:39:07.421Z,1.50
2022-07-31T13:41:35.520Z,1.73
2022-07-31T13:44:02.990Z,1.48
2022-07-31T13:46:30.290Z,1.30
2022-07-31T13:48:59.316Z,1.67
2022-07-31T13:51:28.997Z,0.80
2022-07-31T13:53:56.098Z,2.22
2022-07-31T13:56:36.808Z,3.10
2022-07-31T13:59:08.665Z,2.40
2022-07-31T14:02:04.538Z,3.72
2022-07-31T14:04:23.881Z,4.80
2022-07-31T14:06:51.744Z,2.97
2022-07-31T14:09:19.251Z,4.97
2022-07-31T14:11:45.992Z,1.43
2022-07-31T14:14:15.123Z,2.37
2022-07-31T14:16:49.057Z,0.73
2022-07-31T14:19:15.693Z,1.25
2022-07-31T14:21:55.900Z,4.13
2022-07-31T14:24:24.795Z,5.80
2022-07-31T14:26:53.576Z,2.47
2022-07-31T14:29:20.244Z,1.00
2022-07-31T14:31:46.914Z,4.20
2022-07-31T14:34:13.575Z,1.73
2022-07-31T14:36:40.302Z,2.88
2022-07-31T14:39:06.924Z,2.05
2022-07-31T14:41:33.570Z,4.60
2022-07-31T14:44:00.529Z,3.10
2022-07-31T14:46:27.143Z,4.03
2022-07-31T14:48:53.934Z,1.23
2022-07-31T14:51:20.674Z,2.63
2022-07-31T14:53:47.898Z,2.60
2022-07-31T14:56:17.292Z,4.20
2022-07-31T14:58:58.200Z,9.57
2022-07-31T15:01:26.761Z,1.10
2022-07-31T15:03:57.582Z,3.38
2022-07-31T15:06:48.707Z,1.33
2022-07-31T15:09:11.323Z,3.87
2022-07-31T15:11:57.490Z,1.25
2022-07-31T15:14:25.115Z,4.35
2022-07-31T15:16:51.843Z,2.40
2022-07-31T15:19:18.555Z,3.05
2022-07-31T15:22:09.936Z,4.10
2022-07-31T15:24:32.757Z,1.98
2022-07-31T15:26:59.847Z,3.65
2022-07-31T15:30:05.196Z,3.45
2022-07-31T15:32:13.559Z,1.75
2022-07-31T15:34:40.160Z,3.60
2022-07-31T15:37:07.480Z,1.55
2022-07-31T15:39:34.412Z,2.63
2022-07-31T15:42:01.994Z,4.38
2022-07-31T15:44:29.002Z,3.15
2022-07-31T15:46:55.688Z,1.23
2022-07-31T15:49:22.317Z,5.70
2022-07-31T15:51:49.129Z,2.85
2022-07-31T15:54:18.101Z,4.28
2022-07-31T15:56:47.059Z,2.60
2022-07-31T15:59:13.801Z,1.40
2022-07-31T16:01:40.524Z,2.70
2022-07-31T16:04:16.484Z,2.03
2022-07-31T16:06:48.832Z,1.98
2022-07-31T16:09:17.308Z,4.72
2022-07-31T16:12:02.903Z,5.07
2022-07-31T16:14:30.790Z,2.13
2022-07-31T16:16:57.594Z,3.22
2022-07-31T16:19:27.562Z,3.70
2022-07-31T16:21:58.054Z,2.10
2022-07-31T16:24:24.730Z,1.57
2022-07-31T16:26:51.369Z,5.13
2022-07-31T16:29:59.722Z,3.17
2022-07-31T16:32:07.918Z,2.65
2022-07-31T16:34:34.569Z,5.53
2022-07-31T16:37:01.208Z,1.80
2022-07-31T16:39:27.801Z,1.90
2022-07-31T16:41:55.315Z,1.20
2022-07-31T16:44:22.081Z,2.08
2022-07-31T16:46:54.212Z,5.75
2022-07-31T16:49:35.352Z,2.90
2022-07-31T16:52:04.214Z,1.65
2022-07-31T16:54:31.074Z,2.25
2022-07-31T16:56:57.716Z,2.78
2022-07-31T16:59:24.381Z,5.70
2022-07-31T17:01:57.855Z,3.45
2022-07-31T17:04:26.530Z,2.65
2022-07-31T17:06:53.182Z,2.65
2022-07-31T17:09:20.257Z,1.77
2022-07-31T17:11:49.038Z,1.40
2022-07-31T17:14:18.153Z,1.20
2022-07-31T17:16:48.010Z,3.17
2022-07-31T17:19:42.760Z,1.90
2022-07-31T17:22:11.542Z,3.30
2022-07-31T17:24:38.974Z,1.35
2022-07-31T17:27:09.725Z,1.55
2022-07-31T17:29:39.647Z,2.33
2022-07-31T17:32:07.010Z,5.00
2022-07-31T17:34:35.417Z,2.85
2022-07-31T17:37:02.483Z,4.22
2022-07-31T17:39:31.225Z,2.53
2022-07-31T17:41:58.674Z,4.90
2022-07-31T17:44:25.304Z,4.32
2022-07-31T17:46:52.688Z,2.45
2022-07-31T17:49:20.795Z,2.58
2022-07-31T17:51:57.802Z,2.10
2022-07-31T17:54:27.885Z,2.97
2022-07-31T17:56:54.639Z,3.53
2022-07-31T17:59:21.471Z,4.20
2022-07-31T18:01:51.426Z,3.30
2022-07-31T18:04:18.442Z,3.47
2022-07-31T18:06:45.293Z,5.90
2022-07-31T18:09:12.060Z,4.07
2022-07-31T18:11:38.768Z,4.03
2022-07-31T18:14:05.363Z,4.07
2022-07-31T18:16:31.965Z,5.70
2022-07-31T18:18:58.709Z,5.38
2022-07-31T18:21:25.347Z,5.53
2022-07-31T18:23:52.173Z,6.63
2022-07-31T18:26:18.798Z,5.18
2022-07-31T18:28:45.398Z,3.70
2022-07-31T18:31:24.181Z,3.35
2022-07-31T18:33:58.842Z,3.83
2022-07-31T18:36:26.489Z,3.70
2022-07-31T18:38:53.155Z,3.93
2022-07-31T18:41:20.731Z,5.88
2022-07-31T18:43:47.430Z,3.05
2022-07-31T18:46:14.194Z,5.13
2022-07-31T18:48:40.872Z,3.47
2022-07-31T18:51:07.571Z,4.88
2022-07-31T18:53:34.342Z,6.95
2022-07-31T18:56:01.071Z,4.28
2022-07-31T18:58:27.725Z,3.10
2022-07-31T19:00:56.630Z,3.53
2022-07-31T19:03:25.667Z,3.53
2022-07-31T19:05:53.049Z,4.20
2022-07-31T19:08:20.678Z,2.55
2022-07-31T19:10:49.446Z,4.07
2022-07-31T19:13:19.083Z,2.40
2022-07-31T19:15:51.479Z,6.05
2022-07-31T19:18:18.738Z,5.80
2022-07-31T19:21:00.420Z,3.10
2022-07-31T19:23:41.734Z,5.00
2022-07-31T19:26:08.710Z,2.72
2022-07-31T19:28:36.352Z,4.47
2022-07-31T19:31:06.469Z,5.55
2022-07-31T19:33:35.585Z,8.50
2022-07-31T19:36:03.225Z,6.25
2022-07-31T19:38:35.811Z,4.43
2022-07-31T19:41:02.812Z,4.80
2022-07-31T19:43:29.965Z,3.80
2022-07-31T19:46:09.712Z,2.92
2022-07-31T19:48:41.474Z,6.50
2022-07-31T19:51:09.501Z,11.60
2022-07-31T19:53:36.231Z,3.08
2022-07-31T19:56:05.764Z,2.55
2022-07-31T19:58:36.447Z,3.00
2022-07-31T20:01:06.042Z,1.95
2022-07-31T20:03:33.367Z,2.85
2022-07-31T20:06:00.328Z,2.65
2022-07-31T20:08:27.098Z,2.88
2022-07-31T20:11:03.506Z,5.28
2022-07-31T20:13:33.926Z,3.70
2022-07-31T20:16:01.213Z,7.43
2022-07-31T20:18:29.027Z,3.40
2022-07-31T20:20:58.750Z,4.45
2022-07-31T20:23:26.568Z,5.20
2022-07-31T20:25:53.695Z,2.80
2022-07-31T20:28:20.639Z,3.50
2022-07-31T20:30:47.315Z,5.78
2022-07-31T20:33:13.923Z,4.70
2022-07-31T20:35:49.213Z,7.15
2022-07-31T20:38:18.179Z,5.73
2022-07-31T20:40:48.238Z,5.45
2022-07-31T20:43:21.389Z,5.22
2022-07-31T20:45:48.330Z,5.93
2022-07-31T20:48:17.716Z,3.38
2022-07-31T20:50:48.253Z,5.87
2022-07-31T20:53:19.282Z,3.85
2022-07-31T20:55:47.479Z,4.93
2022-07-31T20:58:14.308Z,5.38
2022-07-31T21:00:42.001Z,5.45
2022-07-31T21:03:08.666Z,4.73
2022-07-31T21:05:35.408Z,4.35
2022-07-31T21:08:02.166Z,5.70
2022-07-31T21:10:29.691Z,4.57
2022-07-31T21:12:56.917Z,4.88
2022-07-31T21:15:42.899Z,5.25
2022-07-31T21:18:18.619Z,5.78
2022-07-31T21:20:51.810Z,5.38
2022-07-31T21:23:24.655Z,3.00
2022-07-31T21:25:52.618Z,4.15
2022-07-31T21:28:19.747Z,6.55
2022-07-31T21:30:47.160Z,3.55
2022-07-31T21:33:14.148Z,4.43
2022-07-31T21:35:41.521Z,3.38
2022-07-31T21:38:12.559Z,4.18
2022-07-31T21:40:40.315Z,4.35
2022-07-31T21:43:07.731Z,5.40
2022-07-31T21:45:50.898Z,6.40
2022-07-31T21:48:23.168Z,5.65
2022-07-31T21:50:50.286Z,3.83
2022-07-31T21:53:16.946Z,4.63
2022-07-31T21:55:43.907Z,3.88
2022-07-31T21:58:10.724Z,4.75
2022-07-31T22:00:37.669Z,5.10
2022-07-31T22:03:05.197Z,4.72
2022-07-31T22:05:50.683Z,5.55
2022-07-31T22:08:18.146Z,6.25
2022-07-31T22:10:44.893Z,5.90
2022-07-31T22:13:12.134Z,7.07
2022-07-31T22:15:55.476Z,6.57
2022-07-31T22:18:27.039Z,7.43
2022-07-31T22:20:54.166Z,8.07
2022-07-31T22:23:21.040Z,8.45
2022-07-31T22:25:51.377Z,10.63
2022-07-31T22:28:20.779Z,8.52
2022-07-31T22:30:47.903Z,9.50
2022-07-31T22:33:14.636Z,11.30
2022-07-31T22:35:41.545Z,10.23
2022-07-31T22:38:09.337Z,10.23
2022-07-31T22:40:36.125Z,11.63
2022-07-31T22:43:03.478Z,11.30
2022-07-31T22:45:30.303Z,10.25
2022-07-31T22:47:57.907Z,10.70
2022-07-31T22:50:24.824Z,9.27
2022-07-31T22:52:52.019Z,9.10
2022-07-31T22:55:21.783Z,10.48
2022-07-31T22:57:48.483Z,10.40
2022-07-31T23:00:18.290Z,9.07
2022-07-31T23:02:45.912Z,8.93
2022-07-31T23:05:12.766Z,10.30
2022-07-31T23:07:39.486Z,11.80
2022-07-31T23:10:07.558Z,12.15
2022-07-31T23:12:34.686Z,11.38
2022-07-31T23:15:01.325Z,13.23
2022-07-31T23:17:28.031Z,13.38
2022-07-31T23:19:54.915Z,13.18
2022-07-31T23:22:33.798Z,13.40
2022-07-31T23:25:10.273Z,12.90
2022-07-31T23:27:36.915Z,12.20
2022-07-31T23:30:04.329Z,13.13
2022-07-31T23:32:31.008Z,13.63
2022-07-31T23:34:57.746Z,13.48
2022-07-31T23:37:24.418Z,12.67
2022-07-31T23:39:51.033Z,12.40
2022-07-31T23:42:36.282Z,13.82
2022-07-31T23:45:03.373Z,13.50
2022-07-31T23:47:45.581Z,14.20
2022-07-31T23:50:15.057Z,12.57
2022-07-31T23:52:42.609Z,12.60
2022-07-31T23:55:09.705Z,13.52
2022-07-31T23:57:36.566Z,12.15
